Terminal Aerodrome Forecast
Issued by NWS Knoxville/Tri Cities, TN

Home | Current Version | Previous Version | Text Only | Print | Product List | Glossary On
Versions: 1 2 3 4 5 6 7 8 9 10 11 12 13 14 15 16 17 18 19 20 21 22 23 24
000
FTUS44 KMRX 262320
TAFCHA
TAF
KCHA 262320Z 2700/2724 02005KT P6SM OVC070
     FM270600 01005KT 5SM BR OVC020
     FM271500 01010KT P6SM BKN040
     FM272100 33007KT P6SM SCT250=

USA.gov is the U.S. government's official web portal to all federal, state and local government web resources and services.